首页
METAR-TAF:

METAR-TAF

机场 :

圣萨尔瓦多-德胡胡伊, 阿根廷

纬度: 24-23S, 经度: 065-05W, 海拔: 921米

当前天气观测

该预报发布于33分钟前的09:00 UTC
风速2节,风向多变
温度 12°C
湿度 67%
气压 1023 hPa
能见度10公里或以上
多云层高于5300英尺
阴天层高于8200英尺

METAR: SASJ 200900Z VRB02KT 9999 BKN053 OVC082 12/06 Q1023

时间: 06:33 (09:33 UTC)

预报

该预报发布于4小时和33分钟前的05:00 UTC
预报有效从20日的 06点(UTC)到 21日的 06点(UTC)
风速5节,风向南转西南
能见度10公里或以上
多云层高于5000英尺
成为
从 20日的 10点(UTC)到 20日的 13点(UTC)
风速5节,风向东转东南
能见度10公里或以上
少量云层高于3000英尺
阴天层高于5000英尺
成为
从 20日的 15点(UTC)到 20日的 18点(UTC)
风速5节,风向
能见度10公里或以上
1500米以下无云,无积雨云
成为
从 21日的 00点(UTC)到 21日的 03点(UTC)
风速5节,风向北转西北

TAF: SASJ 200500Z 2006/2106 20005KT 9999 BKN050 TX22/2018Z TN08/2011Z BECMG 2010/2013 11005KT 9999 FEW030 OVC050 BECMG 2015/2018 09005KT CAVOK BECMG 2100/2103 34005KT

超过4000个机场的气象观测和天气预报(METAR&TAF报告)。

可查询的气象台以黄色和红色小点在地图上表示。

将鼠标移到小点上方,可查看气象台名称。

然后点击查看天气观测和预报。

如需切换地图:点击带黑十字的绿色按钮放大地图;点击带横线的绿色按钮缩小地图;或者点击绿色箭头查看邻近地区的地图。


METAR-TAF: